Kinoene Maru — JD3762 — position and weather

sailwx.info

Track history (hours):
 
Tides and Currents Weather Stations Pressure Air Temp Water Temp Dewpoint Dewpoint Depression Visibility Wind Speed Wind Dir Waves Ship Positions

Kinoene Maru

Last reported at 2018-Jan-12 05:34 UTC. Time now 2018-Jan-19 15:13 UTC.
Position N 34°09' E 134°45'.

Length 61 m.

Type: Cargo ship. MMSI: 431005966.

Date/timePositionNaut miles runAvg speedWind from/ knotsBaromVisibWave heightAir tempDewpointWater temp
2018-Jan-12 05:34N 34°09' E 134°45'110.2
2018-Jan-12 05:27N 34°08' E 134°46'1210.1
2018-Jan-12 04:14N 33°58' E 134°55'173 7.5
2018-Jan-11 05:17N 34°40' E 138°18'3 9.9
2018-Jan-11 04:57N 34°43' E 138°19'810.2
2018-Jan-11 04:12N 34°50' E 138°23'2 9.5
2018-Jan-11 03:59N 34°52' E 138°25'5 9.6
2018-Jan-11 03:30N 34°55' E 138°29'5 9.7
2018-Jan-11 02:59N 34°59' E 138°32'3 5.7
2018-Jan-11 02:30N 35°01' E 138°30'0 0.4
2018-Jan-11 01:59N 35°01' E 138°30'0 0.0
2018-Jan-11 01:29N 35°01' E 138°30'0 0.0
2018-Jan-11 00:59N 35°01' E 138°30'0 0.0
2018-Jan-11 00:29N 35°01' E 138°30'0 0.0
2018-Jan-10 23:56N 35°01' E 138°30'0 0.0
2018-Jan-10 23:29N 35°01' E 138°30'0 0.0
2018-Jan-10 22:59N 35°01' E 138°30'0 0.0
2018-Jan-10 22:29N 35°01' E 138°30'0 0.0
2018-Jan-10 21:56N 35°01' E 138°30'0 0.0
2018-Jan-10 21:29N 35°01' E 138°30'0 0.0
2018-Jan-10 20:59N 35°01' E 138°30'0 0.0
2018-Jan-10 20:26N 35°01' E 138°30'0 0.0
2018-Jan-10 19:59N 35°01' E 138°30'0 0.0
2018-Jan-10 19:20N 35°01' E 138°30'0 0.0
2018-Jan-10 18:59N 35°01' E 138°30'0 0.0
2018-Jan-10 18:29N 35°01' E 138°30'0 0.0
2018-Jan-10 17:59N 35°01' E 138°30'0 0.0
2018-Jan-10 17:29N 35°01' E 138°30'0 0.0
2018-Jan-10 16:56N 35°01' E 138°30'0 0.0
2018-Jan-10 16:29N 35°01' E 138°30'0 0.0
2018-Jan-10 15:59N 35°01' E 138°30'0 0.0
2018-Jan-10 15:23N 35°01' E 138°30'0 0.0
2018-Jan-10 14:59N 35°01' E 138°30'0 0.0
2018-Jan-10 14:26N 35°01' E 138°30'0 0.0
2018-Jan-10 13:59N 35°01' E 138°30'0 0.0
2018-Jan-10 13:29N 35°01' E 138°30'0 0.0
2018-Jan-10 12:56N 35°01' E 138°30'0 0.0
2018-Jan-10 12:26N 35°01' E 138°30'0 0.0
2018-Jan-10 11:56N 35°01' E 138°30'0 0.0
2018-Jan-10 11:29N 35°01' E 138°30'0 0.0
2018-Jan-10 10:59N 35°01' E 138°30'3 6.2
2018-Jan-10 10:30N 35°00' E 138°33'611.1
2018-Jan-10 09:58N 34°55' E 138°37'510.8
2018-Jan-10 09:30N 34°50' E 138°39'510.7
2018-Jan-10 09:00N 34°45' E 138°41'15 8.0
2018-Jan-10 07:08N 34°36' E 138°55'45 7.8
2018-Jan-10 01:21N 35°06' E 139°37'2 6.5
2018-Jan-10 00:58N 35°07' E 139°40'3 6.9
2018-Jan-10 00:28N 35°09' E 139°43'4 7.5
2018-Jan-09 23:59N 35°12' E 139°46'4 9.0
2018-Jan-09 23:31N 35°16' E 139°46'610.9
2018-Jan-09 22:58N 35°21' E 139°42'510.3
2018-Jan-09 22:30N 35°26' E 139°44'510.6
2018-Jan-09 22:01N 35°29' E 139°50'2 0.1
2018-Jan-08 13:05N 35°30' E 139°52'110.1
2018-Jan-08 13:00N 35°29' E 139°52'510.7
2018-Jan-08 12:30N 35°25' E 139°47'510.6
2018-Jan-08 12:00N 35°20' E 139°45'510.1
2018-Jan-08 11:30N 35°16' E 139°47'510.4
2018-Jan-08 10:58N 35°10' E 139°46'510.2
2018-Jan-08 10:30N 35°06' E 139°44'610.7
2018-Jan-08 09:58N 35°02' E 139°39'3612.4
2018-Jan-08 07:05N 34°40' E 139°04'  
Track history (hours):
 
Tides and Currents Weather Stations Pressure Air Temp Water Temp Dewpoint Dewpoint Depression Visibility Wind Speed Wind Dir Waves Ship Positions

Kinoene Maru

Last reported at 2018-Jan-12 05:34 UTC. Time now 2018-Jan-19 15:13 UTC.
Position N 34°09' E 134°45'.

Length 61 m.

Type: Cargo ship. MMSI: 431005966.

Date/timePositionNaut miles runAvg speedWind from/ knotsBaromVisibWave heightAir tempDewpointWater temp
2018-Jan-12 05:34N 34°09' E 134°45'110.2
2018-Jan-12 05:27N 34°08' E 134°46'1210.1
2018-Jan-12 04:14N 33°58' E 134°55'173 7.5
2018-Jan-11 05:17N 34°40' E 138°18'3 9.9
2018-Jan-11 04:57N 34°43' E 138°19'810.2
2018-Jan-11 04:12N 34°50' E 138°23'2 9.5
2018-Jan-11 03:59N 34°52' E 138°25'5 9.6
2018-Jan-11 03:30N 34°55' E 138°29'5 9.7
2018-Jan-11 02:59N 34°59' E 138°32'3 5.7
2018-Jan-11 02:30N 35°01' E 138°30'0 0.4
2018-Jan-11 01:59N 35°01' E 138°30'0 0.0
2018-Jan-11 01:29N 35°01' E 138°30'0 0.0
2018-Jan-11 00:59N 35°01' E 138°30'0 0.0
2018-Jan-11 00:29N 35°01' E 138°30'0 0.0
2018-Jan-10 23:56N 35°01' E 138°30'0 0.0
2018-Jan-10 23:29N 35°01' E 138°30'0 0.0
2018-Jan-10 22:59N 35°01' E 138°30'0 0.0
2018-Jan-10 22:29N 35°01' E 138°30'0 0.0
2018-Jan-10 21:56N 35°01' E 138°30'0 0.0
2018-Jan-10 21:29N 35°01' E 138°30'0 0.0
2018-Jan-10 20:59N 35°01' E 138°30'0 0.0
2018-Jan-10 20:26N 35°01' E 138°30'0 0.0
2018-Jan-10 19:59N 35°01' E 138°30'0 0.0
2018-Jan-10 19:20N 35°01' E 138°30'0 0.0
2018-Jan-10 18:59N 35°01' E 138°30'0 0.0
2018-Jan-10 18:29N 35°01' E 138°30'0 0.0
2018-Jan-10 17:59N 35°01' E 138°30'0 0.0
2018-Jan-10 17:29N 35°01' E 138°30'0 0.0
2018-Jan-10 16:56N 35°01' E 138°30'0 0.0
2018-Jan-10 16:29N 35°01' E 138°30'0 0.0
2018-Jan-10 15:59N 35°01' E 138°30'0 0.0
2018-Jan-10 15:23N 35°01' E 138°30'0 0.0
2018-Jan-10 14:59N 35°01' E 138°30'0 0.0
2018-Jan-10 14:26N 35°01' E 138°30'0 0.0
2018-Jan-10 13:59N 35°01' E 138°30'0 0.0
2018-Jan-10 13:29N 35°01' E 138°30'0 0.0
2018-Jan-10 12:56N 35°01' E 138°30'0 0.0
2018-Jan-10 12:26N 35°01' E 138°30'0 0.0
2018-Jan-10 11:56N 35°01' E 138°30'0 0.0
2018-Jan-10 11:29N 35°01' E 138°30'0 0.0
2018-Jan-10 10:59N 35°01' E 138°30'3 6.2
2018-Jan-10 10:30N 35°00' E 138°33'611.1
2018-Jan-10 09:58N 34°55' E 138°37'510.8
2018-Jan-10 09:30N 34°50' E 138°39'510.7
2018-Jan-10 09:00N 34°45' E 138°41'15 8.0
2018-Jan-10 07:08N 34°36' E 138°55'45 7.8
2018-Jan-10 01:21N 35°06' E 139°37'2 6.5
2018-Jan-10 00:58N 35°07' E 139°40'3 6.9
2018-Jan-10 00:28N 35°09' E 139°43'4 7.5
2018-Jan-09 23:59N 35°12' E 139°46'4 9.0
2018-Jan-09 23:31N 35°16' E 139°46'610.9
2018-Jan-09 22:58N 35°21' E 139°42'510.3
2018-Jan-09 22:30N 35°26' E 139°44'510.6
2018-Jan-09 22:01N 35°29' E 139°50'2 0.1
2018-Jan-08 13:05N 35°30' E 139°52'110.1
2018-Jan-08 13:00N 35°29' E 139°52'510.7
2018-Jan-08 12:30N 35°25' E 139°47'510.6
2018-Jan-08 12:00N 35°20' E 139°45'510.1
2018-Jan-08 11:30N 35°16' E 139°47'510.4
2018-Jan-08 10:58N 35°10' E 139°46'510.2
2018-Jan-08 10:30N 35°06' E 139°44'610.7
2018-Jan-08 09:58N 35°02' E 139°39'3612.4
2018-Jan-08 07:05N 34°40' E 139°04'  

Dump ship's entire track history